Terminal Aerodrome Forecast
Issued by NWS Wilmington, OH

Current Version | Previous Version | Graphics & Text | Print | Product List | Glossary On
Versions: 1 2 3 4 5 6 7 8 9 10 11 12 13 14 15 16 17 18 19 20 21 22 23 24 25
071
FTUS41 KILN 172320
TAFCVG
TAF
KCVG 172320Z 1800/1906 VRB03KT P6SM FEW250
     FM181400 18008KT P6SM SKC
     FM190000 19004KT P6SM FEW250=

USA.gov is the U.S. government's official web portal to all federal, state and local government web resources and services.